sensor_id;sensor_type;location;lat;lon;timestamp;pressure;altitude;pressure_sealevel;temperature;humidity
44103;BME280;29769;42.178;24.742;2022-11-20T00:00:15;99034.44;;;11.60;100.00
44103;BME280;29769;42.178;24.742;2022-11-20T00:03:00;99049.63;;;11.52;100.00
44103;BME280;29769;42.178;24.742;2022-11-20T00:05:45;99022.03;;;11.64;100.00
44103;BME280;29769;42.178;24.742;2022-11-20T00:08:30;99024.34;;;11.76;100.00
44103;BME280;29769;42.178;24.742;2022-11-20T00:11:18;99035.00;;;11.72;100.00
44103;BME280;29769;42.178;24.742;2022-11-20T00:14:03;99031.97;;;11.85;100.00
44103;BME280;29769;42.178;24.742;2022-11-20T00:16:48;99052.88;;;11.60;100.00
44103;BME280;29769;42.178;24.742;2022-11-20T00:19:32;99039.31;;;11.76;100.00
44103;BME280;29769;42.178;24.742;2022-11-20T00:22:17;99028.50;;;11.83;100.00
44103;BME280;29769;42.178;24.742;2022-11-20T00:25:02;99039.53;;;11.37;100.00
44103;BME280;29769;42.178;24.742;2022-11-20T00:27:47;99039.25;;;11.46;100.00
44103;BME280;29769;42.178;24.742;2022-11-20T00:30:32;99028.34;;;11.58;100.00
44103;BME280;29769;42.178;24.742;2022-11-20T00:33:17;99044.97;;;11.60;100.00
44103;BME280;29769;42.178;24.742;2022-11-20T00:36:05;99030.81;;;11.65;100.00
44103;BME280;29769;42.178;24.742;2022-11-20T00:38:52;99048.03;;;11.47;100.00
44103;BME280;29769;42.178;24.742;2022-11-20T00:41:37;99038.03;;;11.29;100.00
44103;BME280;29769;42.178;24.742;2022-11-20T00:44:22;99031.28;;;11.19;100.00
44103;BME280;29769;42.178;24.742;2022-11-20T00:47:07;99032.31;;;11.13;100.00
44103;BME280;29769;42.178;24.742;2022-11-20T00:49:52;99035.56;;;10.90;100.00
44103;BME280;29769;42.178;24.742;2022-11-20T00:52:37;99043.69;;;10.83;100.00
44103;BME280;29769;42.178;24.742;2022-11-20T00:55:22;99042.63;;;10.90;100.00
44103;BME280;29769;42.178;24.742;2022-11-20T00:58:06;99028.22;;;11.03;100.00
44103;BME280;29769;42.178;24.742;2022-11-20T01:00:51;99037.44;;;11.18;100.00
44103;BME280;29769;42.178;24.742;2022-11-20T01:03:41;99035.81;;;11.13;100.00
44103;BME280;29769;42.178;24.742;2022-11-20T01:06:30;99045.81;;;11.01;100.00
44103;BME280;29769;42.178;24.742;2022-11-20T01:09:15;99065.19;;;10.98;100.00
44103;BME280;29769;42.178;24.742;2022-11-20T01:12:00;99033.44;;;11.04;100.00
44103;BME280;29769;42.178;24.742;2022-11-20T01:14:46;99021.78;;;11.13;100.00
44103;BME280;29769;42.178;24.742;2022-11-20T01:17:31;99025.97;;;11.20;100.00
44103;BME280;29769;42.178;24.742;2022-11-20T01:20:16;99009.56;;;11.41;100.00
44103;BME280;29769;42.178;24.742;2022-11-20T01:23:02;99008.13;;;11.59;100.00
44103;BME280;29769;42.178;24.742;2022-11-20T01:25:47;99006.91;;;11.71;100.00
44103;BME280;29769;42.178;24.742;2022-11-20T01:28:32;99002.47;;;11.73;100.00
44103;BME280;29769;42.178;24.742;2022-11-20T01:34:11;98982.84;;;12.11;100.00
44103;BME280;29769;42.178;24.742;2022-11-20T01:36:57;98987.66;;;11.98;100.00
44103;BME280;29769;42.178;24.742;2022-11-20T01:39:41;99005.16;;;11.71;100.00
44103;BME280;29769;42.178;24.742;2022-11-20T01:42:26;98983.25;;;11.69;100.00
44103;BME280;29769;42.178;24.742;2022-11-20T01:48:54;98964.53;;;12.06;100.00
44103;BME280;29769;42.178;24.742;2022-11-20T01:51:45;98978.13;;;11.94;100.00
44103;BME280;29769;42.178;24.742;2022-11-20T01:54:37;98983.38;;;11.94;100.00
44103;BME280;29769;42.178;24.742;2022-11-20T01:57:25;98981.56;;;11.39;100.00
44103;BME280;29769;42.178;24.742;2022-11-20T02:00:15;98964.91;;;11.66;100.00
44103;BME280;29769;42.178;24.742;2022-11-20T02:03:08;98964.66;;;11.75;100.00
44103;BME280;29769;42.178;24.742;2022-11-20T02:06:14;98977.47;;;11.86;100.00
44103;BME280;29769;42.178;24.742;2022-11-20T02:09:01;98969.78;;;11.80;100.00
44103;BME280;29769;42.178;24.742;2022-11-20T02:11:46;98967.38;;;11.72;100.00
44103;BME280;29769;42.178;24.742;2022-11-20T02:14:31;98962.97;;;11.73;100.00
44103;BME280;29769;42.178;24.742;2022-11-20T02:17:16;98965.56;;;11.74;100.00
44103;BME280;29769;42.178;24.742;2022-11-20T02:20:00;98968.84;;;11.53;100.00
44103;BME280;29769;42.178;24.742;2022-11-20T02:23:02;98956.25;;;11.63;100.00
44103;BME280;29769;42.178;24.742;2022-11-20T02:25:50;98964.09;;;11.64;100.00
44103;BME280;29769;42.178;24.742;2022-11-20T02:28:36;98953.38;;;11.70;100.00
44103;BME280;29769;42.178;24.742;2022-11-20T02:31:21;98941.38;;;12.16;100.00
44103;BME280;29769;42.178;24.742;2022-11-20T02:34:06;98912.78;;;12.78;100.00
44103;BME280;29769;42.178;24.742;2022-11-20T02:36:51;98934.75;;;13.03;100.00
44103;BME280;29769;42.178;24.742;2022-11-20T02:39:36;98924.34;;;12.99;100.00
44103;BME280;29769;42.178;24.742;2022-11-20T02:42:21;98924.56;;;12.92;100.00
44103;BME280;29769;42.178;24.742;2022-11-20T02:45:07;98934.78;;;13.02;100.00
44103;BME280;29769;42.178;24.742;2022-11-20T02:47:52;98942.41;;;13.09;100.00
44103;BME280;29769;42.178;24.742;2022-11-20T02:50:37;98962.63;;;13.10;100.00
44103;BME280;29769;42.178;24.742;2022-11-20T02:53:23;98964.53;;;12.82;100.00
44103;BME280;29769;42.178;24.742;2022-11-20T02:56:08;98955.88;;;12.78;100.00
44103;BME280;29769;42.178;24.742;2022-11-20T02:58:52;98940.44;;;12.91;100.00
44103;BME280;29769;42.178;24.742;2022-11-20T03:01:37;98955.72;;;12.83;100.00
44103;BME280;29769;42.178;24.742;2022-11-20T03:04:23;98952.53;;;12.73;100.00
44103;BME280;29769;42.178;24.742;2022-11-20T03:07:08;98949.09;;;12.71;100.00
44103;BME280;29769;42.178;24.742;2022-11-20T03:09:53;98925.72;;;12.61;100.00
44103;BME280;29769;42.178;24.742;2022-11-20T03:12:38;98949.03;;;12.73;100.00
44103;BME280;29769;42.178;24.742;2022-11-20T03:15:23;98947.22;;;12.75;100.00
44103;BME280;29769;42.178;24.742;2022-11-20T03:18:07;98936.44;;;12.81;100.00
44103;BME280;29769;42.178;24.742;2022-11-20T03:20:56;98939.19;;;13.01;100.00
44103;BME280;29769;42.178;24.742;2022-11-20T03:23:41;98916.81;;;12.88;100.00
44103;BME280;29769;42.178;24.742;2022-11-20T03:26:26;98911.16;;;12.99;100.00
44103;BME280;29769;42.178;24.742;2022-11-20T03:29:11;98912.78;;;13.01;100.00
44103;BME280;29769;42.178;24.742;2022-11-20T03:31:56;98921.53;;;13.03;100.00
44103;BME280;29769;42.178;24.742;2022-11-20T03:34:40;98925.25;;;12.98;100.00
44103;BME280;29769;42.178;24.742;2022-11-20T03:37:26;98917.81;;;12.85;100.00
44103;BME280;29769;42.178;24.742;2022-11-20T03:40:11;98937.94;;;12.88;100.00
44103;BME280;29769;42.178;24.742;2022-11-20T03:42:56;98942.91;;;12.96;100.00
44103;BME280;29769;42.178;24.742;2022-11-20T03:45:41;98940.28;;;12.96;100.00
44103;BME280;29769;42.178;24.742;2022-11-20T03:48:26;98924.28;;;13.00;100.00
44103;BME280;29769;42.178;24.742;2022-11-20T03:51:15;98939.44;;;13.18;100.00
44103;BME280;29769;42.178;24.742;2022-11-20T03:54:04;98938.53;;;13.19;100.00
44103;BME280;29769;42.178;24.742;2022-11-20T03:56:49;98943.13;;;13.14;100.00
44103;BME280;29769;42.178;24.742;2022-11-20T03:59:34;98931.84;;;13.11;100.00
44103;BME280;29769;42.178;24.742;2022-11-20T04:02:19;98931.78;;;13.12;100.00
44103;BME280;29769;42.178;24.742;2022-11-20T04:05:04;98935.09;;;13.17;100.00
44103;BME280;29769;42.178;24.742;2022-11-20T04:07:49;98938.31;;;13.25;100.00
44103;BME280;29769;42.178;24.742;2022-11-20T04:10:34;98950.31;;;13.34;100.00
44103;BME280;29769;42.178;24.742;2022-11-20T04:13:19;98956.97;;;13.44;100.00
44103;BME280;29769;42.178;24.742;2022-11-20T04:16:05;98940.19;;;13.45;100.00
44103;BME280;29769;42.178;24.742;2022-11-20T04:18:55;98938.78;;;13.58;100.00
44103;BME280;29769;42.178;24.742;2022-11-20T04:21:41;98939.47;;;13.63;100.00
44103;BME280;29769;42.178;24.742;2022-11-20T04:24:26;98941.88;;;13.69;100.00
44103;BME280;29769;42.178;24.742;2022-11-20T04:27:10;98944.47;;;13.71;100.00
44103;BME280;29769;42.178;24.742;2022-11-20T04:29:55;98940.13;;;13.68;100.00
44103;BME280;29769;42.178;24.742;2022-11-20T04:32:40;98933.31;;;13.63;100.00
44103;BME280;29769;42.178;24.742;2022-11-20T04:35:25;98935.00;;;13.65;100.00
44103;BME280;29769;42.178;24.742;2022-11-20T04:38:09;98931.34;;;13.68;100.00
44103;BME280;29769;42.178;24.742;2022-11-20T04:40:58;98927.97;;;13.64;100.00
44103;BME280;29769;42.178;24.742;2022-11-20T04:43:49;98936.09;;;13.60;100.00
44103;BME280;29769;42.178;24.742;2022-11-20T04:46:36;98948.06;;;13.68;100.00
44103;BME280;29769;42.178;24.742;2022-11-20T04:49:21;98951.06;;;13.81;100.00
44103;BME280;29769;42.178;24.742;2022-11-20T04:52:06;98945.75;;;13.82;100.00
44103;BME280;29769;42.178;24.742;2022-11-20T04:54:51;98935.59;;;13.72;100.00
44103;BME280;29769;42.178;24.742;2022-11-20T04:57:37;98941.13;;;13.66;100.00
44103;BME280;29769;42.178;24.742;2022-11-20T05:00:22;98944.56;;;13.68;100.00
44103;BME280;29769;42.178;24.742;2022-11-20T05:03:07;98932.94;;;13.72;100.00
44103;BME280;29769;42.178;24.742;2022-11-20T05:05:52;98923.06;;;13.77;100.00
44103;BME280;29769;42.178;24.742;2022-11-20T05:08:36;98926.75;;;13.73;100.00
44103;BME280;29769;42.178;24.742;2022-11-20T05:11:21;98926.47;;;13.80;100.00
44103;BME280;29769;42.178;24.742;2022-11-20T05:14:06;98941.13;;;13.88;100.00
44103;BME280;29769;42.178;24.742;2022-11-20T05:16:51;98952.81;;;13.82;100.00
44103;BME280;29769;42.178;24.742;2022-11-20T05:19:36;98956.38;;;13.81;100.00
44103;BME280;29769;42.178;24.742;2022-11-20T05:22:21;98952.03;;;13.80;100.00
44103;BME280;29769;42.178;24.742;2022-11-20T05:25:06;98950.06;;;13.85;100.00
44103;BME280;29769;42.178;24.742;2022-11-20T05:27:50;98950.59;;;14.15;100.00
44103;BME280;29769;42.178;24.742;2022-11-20T05:30:35;98947.41;;;14.27;100.00
44103;BME280;29769;42.178;24.742;2022-11-20T05:33:20;98956.22;;;14.27;100.00
44103;BME280;29769;42.178;24.742;2022-11-20T05:36:06;98960.75;;;14.46;100.00
44103;BME280;29769;42.178;24.742;2022-11-20T05:38:51;98960.97;;;14.61;100.00
44103;BME280;29769;42.178;24.742;2022-11-20T05:41:36;98944.28;;;14.59;100.00
44103;BME280;29769;42.178;24.742;2022-11-20T05:44:21;98939.28;;;14.53;100.00
44103;BME280;29769;42.178;24.742;2022-11-20T05:47:06;98939.31;;;14.72;100.00
44103;BME280;29769;42.178;24.742;2022-11-20T05:49:50;98959.72;;;14.70;100.00
44103;BME280;29769;42.178;24.742;2022-11-20T05:52:35;98958.00;;;14.69;100.00
44103;BME280;29769;42.178;24.742;2022-11-20T05:55:20;98951.94;;;14.67;100.00
44103;BME280;29769;42.178;24.742;2022-11-20T05:58:05;98962.81;;;14.59;100.00
44103;BME280;29769;42.178;24.742;2022-11-20T06:00:50;98964.34;;;14.65;100.00
44103;BME280;29769;42.178;24.742;2022-11-20T06:03:35;98928.75;;;14.52;100.00
44103;BME280;29769;42.178;24.742;2022-11-20T06:06:20;98954.22;;;14.54;100.00
44103;BME280;29769;42.178;24.742;2022-11-20T06:09:05;98971.69;;;14.58;100.00
44103;BME280;29769;42.178;24.742;2022-11-20T06:11:50;98953.69;;;14.46;100.00
44103;BME280;29769;42.178;24.742;2022-11-20T06:14:35;98984.28;;;14.53;100.00
44103;BME280;29769;42.178;24.742;2022-11-20T06:17:19;98990.50;;;14.52;100.00
44103;BME280;29769;42.178;24.742;2022-11-20T06:20:05;98979.28;;;14.46;100.00
44103;BME280;29769;42.178;24.742;2022-11-20T06:22:49;98975.88;;;14.44;100.00
44103;BME280;29769;42.178;24.742;2022-11-20T06:25:42;99000.41;;;14.47;100.00
44103;BME280;29769;42.178;24.742;2022-11-20T06:28:26;99001.13;;;14.51;100.00
44103;BME280;29769;42.178;24.742;2022-11-20T06:31:13;98970.44;;;14.47;100.00
44103;BME280;29769;42.178;24.742;2022-11-20T06:33:59;98990.16;;;14.60;100.00
44103;BME280;29769;42.178;24.742;2022-11-20T06:36:44;99010.75;;;14.74;100.00
44103;BME280;29769;42.178;24.742;2022-11-20T06:39:29;99015.69;;;14.81;100.00
44103;BME280;29769;42.178;24.742;2022-11-20T06:42:13;99002.59;;;14.78;100.00
44103;BME280;29769;42.178;24.742;2022-11-20T06:44:58;98999.59;;;14.86;100.00
44103;BME280;29769;42.178;24.742;2022-11-20T06:47:42;99002.66;;;14.97;100.00
44103;BME280;29769;42.178;24.742;2022-11-20T06:50:27;99006.84;;;15.02;100.00
44103;BME280;29769;42.178;24.742;2022-11-20T06:53:12;98989.63;;;15.12;100.00
44103;BME280;29769;42.178;24.742;2022-11-20T06:55:57;99004.16;;;15.23;100.00
44103;BME280;29769;42.178;24.742;2022-11-20T06:58:42;99001.75;;;15.37;100.00
44103;BME280;29769;42.178;24.742;2022-11-20T07:01:27;99003.25;;;15.42;100.00
44103;BME280;29769;42.178;24.742;2022-11-20T07:04:12;99007.69;;;15.42;100.00
44103;BME280;29769;42.178;24.742;2022-11-20T07:06:57;98990.63;;;15.29;100.00
44103;BME280;29769;42.178;24.742;2022-11-20T07:09:42;98989.81;;;15.27;100.00
44103;BME280;29769;42.178;24.742;2022-11-20T07:12:27;98991.28;;;15.34;100.00
44103;BME280;29769;42.178;24.742;2022-11-20T07:15:12;99011.81;;;15.29;100.00
44103;BME280;29769;42.178;24.742;2022-11-20T07:18:00;98998.38;;;15.33;100.00
44103;BME280;29769;42.178;24.742;2022-11-20T07:20:45;99000.41;;;15.47;100.00
44103;BME280;29769;42.178;24.742;2022-11-20T07:23:30;98998.38;;;15.53;100.00
44103;BME280;29769;42.178;24.742;2022-11-20T07:26:14;99001.50;;;15.62;100.00
44103;BME280;29769;42.178;24.742;2022-11-20T07:28:59;98996.94;;;15.65;100.00
44103;BME280;29769;42.178;24.742;2022-11-20T07:31:44;99006.03;;;15.78;100.00
44103;BME280;29769;42.178;24.742;2022-11-20T07:34:28;99002.06;;;15.87;100.00
44103;BME280;29769;42.178;24.742;2022-11-20T07:37:13;99014.66;;;16.00;100.00
44103;BME280;29769;42.178;24.742;2022-11-20T07:39:58;99009.09;;;16.07;100.00
44103;BME280;29769;42.178;24.742;2022-11-20T07:42:53;99019.72;;;16.24;100.00
44103;BME280;29769;42.178;24.742;2022-11-20T07:45:38;99021.06;;;16.32;100.00
44103;BME280;29769;42.178;24.742;2022-11-20T07:48:24;99018.44;;;16.14;100.00
44103;BME280;29769;42.178;24.742;2022-11-20T07:51:09;99010.38;;;15.98;100.00
44103;BME280;29769;42.178;24.742;2022-11-20T07:53:54;99021.44;;;15.89;100.00
44103;BME280;29769;42.178;24.742;2022-11-20T07:56:39;99002.28;;;15.82;100.00
44103;BME280;29769;42.178;24.742;2022-11-20T07:59:23;99004.56;;;15.90;100.00
44103;BME280;29769;42.178;24.742;2022-11-20T08:02:11;99003.50;;;15.94;100.00
44103;BME280;29769;42.178;24.742;2022-11-20T08:04:56;99003.13;;;16.01;100.00
44103;BME280;29769;42.178;24.742;2022-11-20T08:07:43;99013.78;;;16.19;100.00
44103;BME280;29769;42.178;24.742;2022-11-20T08:10:28;99016.91;;;16.27;100.00
44103;BME280;29769;42.178;24.742;2022-11-20T08:13:12;99015.16;;;16.44;100.00
44103;BME280;29769;42.178;24.742;2022-11-20T08:16:16;99019.72;;;16.60;100.00
44103;BME280;29769;42.178;24.742;2022-11-20T08:19:00;99026.59;;;16.81;100.00
44103;BME280;29769;42.178;24.742;2022-11-20T08:21:45;99017.19;;;16.75;100.00
44103;BME280;29769;42.178;24.742;2022-11-20T08:24:30;99015.75;;;16.68;100.00
44103;BME280;29769;42.178;24.742;2022-11-20T08:27:15;99001.47;;;16.88;100.00
44103;BME280;29769;42.178;24.742;2022-11-20T08:29:59;99003.69;;;17.13;100.00
44103;BME280;29769;42.178;24.742;2022-11-20T08:32:44;98990.19;;;17.33;100.00
44103;BME280;29769;42.178;24.742;2022-11-20T08:35:32;98995.88;;;17.75;100.00
44103;BME280;29769;42.178;24.742;2022-11-20T08:38:18;98993.19;;;18.22;100.00
44103;BME280;29769;42.178;24.742;2022-11-20T08:41:04;98985.81;;;18.73;100.00
44103;BME280;29769;42.178;24.742;2022-11-20T08:44:08;98982.56;;;19.12;100.00
44103;BME280;29769;42.178;24.742;2022-11-20T08:46:53;98988.97;;;19.52;100.00
44103;BME280;29769;42.178;24.742;2022-11-20T08:49:38;98993.44;;;19.80;100.00
44103;BME280;29769;42.178;24.742;2022-11-20T08:52:22;98988.44;;;19.88;100.00
44103;BME280;29769;42.178;24.742;2022-11-20T08:55:07;98990.31;;;20.00;100.00
44103;BME280;29769;42.178;24.742;2022-11-20T08:57:52;98993.13;;;20.25;100.00
44103;BME280;29769;42.178;24.742;2022-11-20T09:00:37;98992.34;;;20.37;100.00
44103;BME280;29769;42.178;24.742;2022-11-20T09:03:22;98993.25;;;20.63;100.00
44103;BME280;29769;42.178;24.742;2022-11-20T09:06:08;98983.81;;;20.84;100.00
44103;BME280;29769;42.178;24.742;2022-11-20T09:08:52;98982.13;;;22.08;100.00
44103;BME280;29769;42.178;24.742;2022-11-20T09:11:37;98986.25;;;23.19;100.00
44103;BME280;29769;42.178;24.742;2022-11-20T09:14:22;98979.41;;;24.58;95.49
44103;BME280;29769;42.178;24.742;2022-11-20T09:17:10;98971.22;;;24.59;91.18
44103;BME280;29769;42.178;24.742;2022-11-20T09:19:58;98971.09;;;24.61;90.27
44103;BME280;29769;42.178;24.742;2022-11-20T09:22:43;98961.44;;;24.58;88.66
44103;BME280;29769;42.178;24.742;2022-11-20T09:25:28;98958.38;;;24.63;87.86
44103;BME280;29769;42.178;24.742;2022-11-20T09:28:13;98960.28;;;24.40;88.13
44103;BME280;29769;42.178;24.742;2022-11-20T09:30:58;98946.03;;;23.63;90.70
44103;BME280;29769;42.178;24.742;2022-11-20T09:33:43;98940.31;;;23.57;92.26
44103;BME280;29769;42.178;24.742;2022-11-20T09:36:27;98930.50;;;23.67;90.41
44103;BME280;29769;42.178;24.742;2022-11-20T09:39:12;98920.78;;;23.66;88.41
44103;BME280;29769;42.178;24.742;2022-11-20T09:51:36;98909.22;;;27.55;67.82
44103;BME280;29769;42.178;24.742;2022-11-20T09:54:33;98903.84;;;29.06;56.37
44103;BME280;29769;42.178;24.742;2022-11-20T09:57:25;98892.19;;;30.16;50.48
44103;BME280;29769;42.178;24.742;2022-11-20T10:00:14;98875.06;;;30.96;47.65
44103;BME280;29769;42.178;24.742;2022-11-20T10:03:04;98878.94;;;32.57;42.61
44103;BME280;29769;42.178;24.742;2022-11-20T10:05:54;98878.78;;;33.78;38.90
44103;BME280;29769;42.178;24.742;2022-11-20T10:08:49;98885.16;;;33.85;37.76
44103;BME280;29769;42.178;24.742;2022-11-20T10:11:51;98883.47;;;33.84;36.84
44103;BME280;29769;42.178;24.742;2022-11-20T10:30:19;98891.19;;;27.46;51.41
44103;BME280;29769;42.178;24.742;2022-11-20T10:33:15;98884.28;;;26.68;54.54
44103;BME280;29769;42.178;24.742;2022-11-20T10:36:21;98871.78;;;26.58;55.87
44103;BME280;29769;42.178;24.742;2022-11-20T10:39:20;98864.44;;;26.31;56.76
44103;BME280;29769;42.178;24.742;2022-11-20T10:42:17;98876.75;;;26.04;57.72
44103;BME280;29769;42.178;24.742;2022-11-20T10:45:35;98855.47;;;25.42;60.22
44103;BME280;29769;42.178;24.742;2022-11-20T10:48:24;98857.47;;;25.50;60.34
44103;BME280;29769;42.178;24.742;2022-11-20T10:57:17;98830.28;;;24.09;66.42
44103;BME280;29769;42.178;24.742;2022-11-20T11:00:07;98839.00;;;23.59;69.66
44103;BME280;29769;42.178;24.742;2022-11-20T11:02:54;98842.91;;;23.66;70.50
44103;BME280;29769;42.178;24.742;2022-11-20T11:05:45;98846.47;;;23.66;70.03
44103;BME280;29769;42.178;24.742;2022-11-20T11:08:38;98833.91;;;23.56;71.28
44103;BME280;29769;42.178;24.742;2022-11-20T11:11:28;98825.47;;;23.60;70.37
44103;BME280;29769;42.178;24.742;2022-11-20T11:14:15;98828.31;;;23.14;71.96
44103;BME280;29769;42.178;24.742;2022-11-20T11:17:00;98823.69;;;22.83;74.92
44103;BME280;29769;42.178;24.742;2022-11-20T11:19:44;98820.47;;;22.67;76.73
44103;BME280;29769;42.178;24.742;2022-11-20T11:22:32;98817.81;;;22.78;76.51
44103;BME280;29769;42.178;24.742;2022-11-20T11:25:27;98818.44;;;22.70;75.78
44103;BME280;29769;42.178;24.742;2022-11-20T11:28:22;98805.22;;;22.56;76.02
44103;BME280;29769;42.178;24.742;2022-11-20T11:31:10;98809.69;;;22.44;78.33
44103;BME280;29769;42.178;24.742;2022-11-20T11:34:12;98807.84;;;22.23;80.48
44103;BME280;29769;42.178;24.742;2022-11-20T11:36:58;98816.38;;;22.28;80.09
44103;BME280;29769;42.178;24.742;2022-11-20T11:39:44;98818.28;;;21.91;83.87
44103;BME280;29769;42.178;24.742;2022-11-20T11:42:31;98803.00;;;21.93;84.74
44103;BME280;29769;42.178;24.742;2022-11-20T11:45:16;98805.41;;;22.20;83.64
44103;BME280;29769;42.178;24.742;2022-11-20T11:48:08;98812.22;;;22.24;83.33
44103;BME280;29769;42.178;24.742;2022-11-20T11:50:53;98821.72;;;22.28;82.74
44103;BME280;29769;42.178;24.742;2022-11-20T11:53:41;98811.63;;;22.31;82.17
44103;BME280;29769;42.178;24.742;2022-11-20T11:56:28;98808.38;;;22.39;81.39
44103;BME280;29769;42.178;24.742;2022-11-20T11:59:26;98815.91;;;22.45;79.46
44103;BME280;29769;42.178;24.742;2022-11-20T12:05:42;98818.03;;;22.52;79.34
44103;BME280;29769;42.178;24.742;2022-11-20T12:08:44;98804.13;;;22.58;78.37
44103;BME280;29769;42.178;24.742;2022-11-20T12:11:55;98811.06;;;22.50;78.30
44103;BME280;29769;42.178;24.742;2022-11-20T12:14:46;98797.25;;;22.32;77.97
44103;BME280;29769;42.178;24.742;2022-11-20T12:17:32;98797.59;;;22.16;74.74
44103;BME280;29769;42.178;24.742;2022-11-20T12:20:17;98795.03;;;22.26;72.56
44103;BME280;29769;42.178;24.742;2022-11-20T12:23:17;98782.78;;;22.35;73.57
44103;BME280;29769;42.178;24.742;2022-11-20T12:26:19;98788.16;;;22.46;73.41
44103;BME280;29769;42.178;24.742;2022-11-20T12:38:36;98782.69;;;22.47;71.61
44103;BME280;29769;42.178;24.742;2022-11-20T12:54:36;98783.75;;;22.34;71.82
44103;BME280;29769;42.178;24.742;2022-11-20T13:01:03;98795.75;;;22.17;70.17
44103;BME280;29769;42.178;24.742;2022-11-20T13:03:52;98793.16;;;22.04;64.80
44103;BME280;29769;42.178;24.742;2022-11-20T13:06:40;98790.28;;;21.84;66.19
44103;BME280;29769;42.178;24.742;2022-11-20T13:09:26;98789.75;;;21.79;65.52
44103;BME280;29769;42.178;24.742;2022-11-20T13:12:24;98768.53;;;21.41;66.87
44103;BME280;29769;42.178;24.742;2022-11-20T13:18:16;98803.19;;;21.42;66.31
44103;BME280;29769;42.178;24.742;2022-11-20T13:21:01;98803.97;;;21.32;66.50
44103;BME280;29769;42.178;24.742;2022-11-20T13:24:20;98804.13;;;21.17;62.56
44103;BME280;29769;42.178;24.742;2022-11-20T13:30:23;98807.97;;;21.50;57.54
44103;BME280;29769;42.178;24.742;2022-11-20T13:33:09;98806.16;;;21.50;56.87
44103;BME280;29769;42.178;24.742;2022-11-20T13:36:22;98821.31;;;21.39;57.37
44103;BME280;29769;42.178;24.742;2022-11-20T13:39:08;98806.69;;;21.19;57.66
44103;BME280;29769;42.178;24.742;2022-11-20T13:41:58;98838.84;;;21.43;56.58
44103;BME280;29769;42.178;24.742;2022-11-20T13:45:02;98824.94;;;21.38;56.86
44103;BME280;29769;42.178;24.742;2022-11-20T13:47:53;98800.75;;;21.39;56.69
44103;BME280;29769;42.178;24.742;2022-11-20T13:51:04;98833.19;;;21.58;55.27
44103;BME280;29769;42.178;24.742;2022-11-20T13:54:01;98840.59;;;21.55;55.76
44103;BME280;29769;42.178;24.742;2022-11-20T13:57:01;98792.41;;;21.31;58.32
44103;BME280;29769;42.178;24.742;2022-11-20T14:02:40;98842.81;;;19.57;77.74
44103;BME280;29769;42.178;24.742;2022-11-20T14:05:26;98820.81;;;18.98;86.94
44103;BME280;29769;42.178;24.742;2022-11-20T14:08:21;98873.16;;;18.41;100.00
44103;BME280;29769;42.178;24.742;2022-11-20T14:11:18;98869.47;;;18.14;100.00
44103;BME280;29769;42.178;24.742;2022-11-20T14:14:24;98860.44;;;17.87;100.00
44103;BME280;29769;42.178;24.742;2022-11-20T14:17:21;98854.66;;;17.64;100.00
44103;BME280;29769;42.178;24.742;2022-11-20T14:20:12;98830.53;;;17.52;100.00
44103;BME280;29769;42.178;24.742;2022-11-20T14:22:59;98842.28;;;17.48;100.00
44103;BME280;29769;42.178;24.742;2022-11-20T14:25:44;98848.97;;;17.39;100.00
44103;BME280;29769;42.178;24.742;2022-11-20T14:28:30;98848.72;;;17.28;100.00
44103;BME280;29769;42.178;24.742;2022-11-20T14:31:23;98784.84;;;16.82;100.00
44103;BME280;29769;42.178;24.742;2022-11-20T14:34:21;98856.50;;;17.15;100.00
44103;BME280;29769;42.178;24.742;2022-11-20T14:37:12;98863.31;;;17.21;100.00
44103;BME280;29769;42.178;24.742;2022-11-20T14:39:57;98855.69;;;17.30;100.00
44103;BME280;29769;42.178;24.742;2022-11-20T14:42:43;98846.25;;;17.25;100.00
44103;BME280;29769;42.178;24.742;2022-11-20T14:45:28;98848.91;;;17.25;100.00
44103;BME280;29769;42.178;24.742;2022-11-20T14:48:13;98826.69;;;17.10;100.00
44103;BME280;29769;42.178;24.742;2022-11-20T14:50:59;98818.88;;;17.07;100.00
44103;BME280;29769;42.178;24.742;2022-11-20T14:53:43;98820.00;;;17.03;100.00
44103;BME280;29769;42.178;24.742;2022-11-20T14:56:28;98829.22;;;16.96;100.00
44103;BME280;29769;42.178;24.742;2022-11-20T14:59:22;98835.66;;;16.92;100.00
44103;BME280;29769;42.178;24.742;2022-11-20T15:02:10;98829.91;;;16.84;100.00
44103;BME280;29769;42.178;24.742;2022-11-20T15:05:00;98836.34;;;16.63;100.00
44103;BME280;29769;42.178;24.742;2022-11-20T15:08:07;98830.97;;;16.47;100.00
44103;BME280;29769;42.178;24.742;2022-11-20T15:10:54;98824.13;;;16.43;100.00
44103;BME280;29769;42.178;24.742;2022-11-20T15:13:39;98825.22;;;16.39;100.00
44103;BME280;29769;42.178;24.742;2022-11-20T15:16:24;98810.53;;;16.32;100.00
44103;BME280;29769;42.178;24.742;2022-11-20T15:19:20;98818.72;;;16.44;100.00
44103;BME280;29769;42.178;24.742;2022-11-20T15:22:10;98813.25;;;16.48;100.00
44103;BME280;29769;42.178;24.742;2022-11-20T15:24:57;98827.53;;;16.45;100.00
44103;BME280;29769;42.178;24.742;2022-11-20T15:27:42;98838.16;;;16.45;100.00
44103;BME280;29769;42.178;24.742;2022-11-20T15:30:27;98838.00;;;16.48;100.00
44103;BME280;29769;42.178;24.742;2022-11-20T15:33:12;98837.06;;;16.49;100.00
44103;BME280;29769;42.178;24.742;2022-11-20T15:35:57;98867.53;;;16.59;100.00
44103;BME280;29769;42.178;24.742;2022-11-20T15:38:42;98870.72;;;16.66;100.00
44103;BME280;29769;42.178;24.742;2022-11-20T15:41:27;98872.03;;;16.74;100.00
44103;BME280;29769;42.178;24.742;2022-11-20T15:44:12;98859.63;;;16.75;100.00